Time;durP1;ratioP1;P1;durP2;ratioP2;P2;SDS_P1;SDS_P2;PMS_P1;PMS_P2;Temp;Humidity;BMP_temperature;BMP_pressure;BME280_temperature;BME280_humidity;BME280_pressure;Samples;Min_cycle;Max_cycle;Signal;HPM_P1;HPM_P2
2021/08/02 00:02:00;;;;;;;1.10;1.05;;;24.10;63.60;;;;;;5016188;28;20067;-41
2021/08/02 00:04:30;;;;;;;1.02;1.02;;;24.10;63.60;;;;;;5017425;28;20113;-42
2021/08/02 00:07:05;;;;;;;1.42;1.38;;;24.10;63.70;;;;;;5016775;28;20100;-40
2021/08/02 00:09:33;;;;;;;1.38;1.27;;;24.10;63.90;;;;;;5009222;28;20048;-40
2021/08/02 00:12:03;;;;;;;1.00;1.00;;;24.00;64.00;;;;;;5010255;28;20112;-40
2021/08/02 00:14:29;;;;;;;1.33;1.23;;;24.00;64.90;;;;;;5011560;28;20140;-41
2021/08/02 00:16:55;;;;;;;0.95;0.95;;;24.00;64.10;;;;;;5013748;28;20568;-36
2021/08/02 00:19:20;;;;;;;1.20;1.20;;;24.00;64.30;;;;;;5010763;28;20053;-36
2021/08/02 00:21:46;;;;;;;1.23;1.10;;;24.00;64.40;;;;;;5019907;28;20034;-37
2021/08/02 00:24:12;;;;;;;0.98;0.98;;;23.90;65.30;;;;;;5012967;28;20097;-41
2021/08/02 00:26:38;;;;;;;1.00;1.00;;;23.90;64.60;;;;;;5011491;28;20029;-46
2021/08/02 00:29:04;;;;;;;0.82;0.82;;;23.90;64.70;;;;;;5011124;28;20033;-47
2021/08/02 00:31:30;;;;;;;1.15;1.15;;;23.90;64.80;;;;;;4995743;28;20033;-43
2021/08/02 00:33:55;;;;;;;1.00;1.00;;;23.90;65.70;;;;;;4995732;28;20096;-42
2021/08/02 00:36:38;;;;;;;1.13;1.13;;;23.90;64.90;;;;;;5023044;28;20065;-42
2021/08/02 00:39:14;;;;;;;1.45;1.20;;;23.90;64.70;;;;;;5017104;28;20029;-40
2021/08/02 00:42:21;;;;;;;1.15;1.15;;;23.90;64.80;;;;;;4992807;28;20112;-41
2021/08/02 00:45:22;;;;;;;1.95;1.08;;;23.90;64.70;;;;;;5008849;28;20132;-42
2021/08/02 00:47:49;;;;;;;0.90;0.90;;;23.90;64.80;;;;;;4994145;28;20034;-42
2021/08/02 00:50:24;;;;;;;0.90;0.90;;;24.00;64.80;;;;;;5013570;28;20090;-42
2021/08/02 00:52:55;;;;;;;1.40;0.90;;;23.90;64.60;;;;;;5011249;28;20026;-41
2021/08/02 00:55:21;;;;;;;0.85;0.85;;;24.00;64.80;;;;;;5017554;28;20021;-44
2021/08/02 00:57:47;;;;;;;1.00;0.90;;;23.90;64.60;;;;;;5001923;28;20112;-39
2021/08/02 01:00:18;;;;;;;1.00;1.00;;;23.90;64.70;;;;;;5005590;28;20037;-47
2021/08/02 01:02:47;;;;;;;1.20;1.20;;;24.00;64.70;;;;;;5010784;28;20651;-43
2021/08/02 01:05:12;;;;;;;1.02;1.02;;;24.00;64.70;;;;;;4997133;28;20681;-46
2021/08/02 01:07:43;;;;;;;1.00;1.00;;;23.90;64.60;;;;;;5014658;28;20124;-40
2021/08/02 01:10:09;;;;;;;1.08;1.08;;;23.90;64.60;;;;;;5012762;28;20149;-49
2021/08/02 01:12:35;;;;;;;1.08;1.08;;;23.90;64.60;;;;;;5011763;28;20029;-48
2021/08/02 01:15:00;;;;;;;1.30;1.27;;;23.90;64.70;;;;;;4992313;28;20405;-51
2021/08/02 01:17:27;;;;;;;1.30;1.20;;;24.00;64.80;;;;;;5012172;28;20053;-43
2021/08/02 01:19:52;;;;;;;0.90;0.90;;;23.90;65.50;;;;;;5003073;28;20017;-36
2021/08/02 01:22:27;;;;;;;1.20;1.20;;;24.00;64.40;;;;;;5040093;28;20071;-37
2021/08/02 01:24:53;;;;;;;1.00;1.00;;;24.00;64.10;;;;;;5031527;28;20025;-37
2021/08/02 01:27:45;;;;;;;1.98;1.10;;;24.00;64.40;;;;;;5033088;28;20040;-38
2021/08/02 01:30:23;;;;;;;0.93;0.93;;;24.00;64.70;;;;;;5020460;28;20458;-38
2021/08/02 01:32:49;;;;;;;0.80;0.80;;;24.00;65.00;;;;;;5042212;28;20033;-37
2021/08/02 01:35:15;;;;;;;1.30;1.17;;;24.00;64.50;;;;;;5039398;28;20030;-37
2021/08/02 01:37:44;;;;;;;1.30;1.20;;;24.00;64.60;;;;;;5041005;28;20036;-37
2021/08/02 01:40:10;;;;;;;0.90;0.90;;;24.00;64.40;;;;;;5048358;28;20017;-37
2021/08/02 01:42:36;;;;;;;1.20;1.20;;;24.00;64.30;;;;;;5035541;28;20022;-37
2021/08/02 01:45:02;;;;;;;1.10;1.10;;;24.00;64.30;;;;;;5040275;28;20017;-38
2021/08/02 01:47:36;;;;;;;1.20;1.20;;;24.00;64.20;;;;;;5023159;28;20035;-37
2021/08/02 01:50:04;;;;;;;1.20;1.20;;;24.00;64.10;;;;;;5039473;28;20041;-37
2021/08/02 01:52:46;;;;;;;1.10;1.10;;;24.00;64.20;;;;;;5022361;28;20025;-37
2021/08/02 01:55:18;;;;;;;1.20;1.20;;;24.00;64.20;;;;;;5034164;28;20029;-37
2021/08/02 01:57:50;;;;;;;1.20;1.20;;;23.90;64.20;;;;;;5021874;28;20021;-36
2021/08/02 02:00:16;;;;;;;0.80;0.80;;;23.90;64.20;;;;;;5036880;28;20149;-36
2021/08/02 02:02:44;;;;;;;1.17;1.15;;;23.90;64.10;;;;;;5023179;28;20518;-36
2021/08/02 02:05:15;;;;;;;0.93;0.93;;;23.90;64.10;;;;;;5039318;28;20045;-36
2021/08/02 02:07:53;;;;;;;1.40;1.30;;;23.90;64.20;;;;;;5006686;28;20491;-36
2021/08/02 02:10:19;;;;;;;1.10;1.00;;;23.90;64.20;;;;;;5006777;28;20029;-37
2021/08/02 02:12:47;;;;;;;1.05;1.05;;;23.90;64.20;;;;;;5035765;28;20033;-37
2021/08/02 02:15:12;;;;;;;1.40;1.30;;;23.90;64.10;;;;;;5020175;28;20549;-36
2021/08/02 02:17:38;;;;;;;1.20;1.10;;;23.90;65.00;;;;;;5021685;28;20038;-37
2021/08/02 02:20:05;;;;;;;1.33;1.33;;;23.90;64.20;;;;;;5006440;28;20403;-37
2021/08/02 02:22:30;;;;;;;0.82;0.82;;;23.90;64.20;;;;;;5013466;28;20025;-37
2021/08/02 02:24:56;;;;;;;1.17;1.15;;;23.90;64.10;;;;;;5016640;28;20503;-37
2021/08/02 02:27:21;;;;;;;1.20;1.20;;;23.90;64.30;;;;;;5032888;28;20134;-37
2021/08/02 02:29:47;;;;;;;1.33;1.25;;;23.90;64.30;;;;;;5023334;28;20033;-38
2021/08/02 02:32:12;;;;;;;1.20;1.20;;;23.80;64.10;;;;;;5019753;28;20511;-37
2021/08/02 02:34:38;;;;;;;1.30;1.30;;;23.80;64.20;;;;;;5019989;28;20040;-37
2021/08/02 02:37:04;;;;;;;1.13;1.13;;;23.80;64.10;;;;;;5035986;28;20029;-36
2021/08/02 02:39:30;;;;;;;1.20;1.10;;;23.80;64.10;;;;;;5032445;28;20377;-36
2021/08/02 02:41:56;;;;;;;0.80;0.80;;;23.80;64.00;;;;;;5020748;28;20029;-37
2021/08/02 02:44:21;;;;;;;1.20;1.20;;;23.80;64.00;;;;;;5016825;28;20037;-36
2021/08/02 02:46:47;;;;;;;1.30;1.30;;;23.80;64.20;;;;;;5035698;28;20439;-37
2021/08/02 02:49:12;;;;;;;1.10;1.10;;;23.80;65.00;;;;;;5003353;28;20039;-37
2021/08/02 02:51:38;;;;;;;0.93;0.93;;;23.80;64.20;;;;;;4998626;28;20025;-36
2021/08/02 02:54:04;;;;;;;1.10;1.10;;;23.80;64.20;;;;;;5017305;28;20063;-37
2021/08/02 02:56:32;;;;;;;1.05;1.05;;;23.80;64.20;;;;;;5046504;28;20108;-37
2021/08/02 02:58:58;;;;;;;1.02;1.02;;;23.80;64.20;;;;;;5022832;28;20030;-36
2021/08/02 03:01:27;;;;;;;1.05;1.05;;;23.80;64.30;;;;;;5001429;28;20021;-36
2021/08/02 03:03:53;;;;;;;2.15;1.20;;;23.80;64.30;;;;;;5030511;28;20025;-36
2021/08/02 03:06:18;;;;;;;1.02;1.02;;;23.80;64.20;;;;;;4998305;28;20764;-36
2021/08/02 03:08:44;;;;;;;1.25;1.15;;;23.70;64.20;;;;;;5014969;28;20783;-36
2021/08/02 03:11:11;;;;;;;0.80;0.80;;;23.70;64.30;;;;;;5002807;28;20030;-36
2021/08/02 03:13:37;;;;;;;1.20;1.17;;;23.70;64.30;;;;;;5002264;28;20036;-36
2021/08/02 03:16:02;;;;;;;0.90;0.90;;;23.70;65.10;;;;;;5003356;28;20029;-36
2021/08/02 03:18:28;;;;;;;0.80;0.80;;;23.70;64.30;;;;;;5029103;28;20076;-36
2021/08/02 03:20:53;;;;;;;1.30;1.20;;;23.70;64.30;;;;;;5038006;28;20029;-36
2021/08/02 03:23:31;;;;;;;1.00;1.00;;;23.70;64.30;;;;;;5018839;28;20029;-36
2021/08/02 03:25:58;;;;;;;0.90;0.90;;;23.70;64.40;;;;;;5034863;28;20036;-36
2021/08/02 03:28:39;;;;;;;0.98;0.98;;;23.70;65.30;;;;;;5018238;28;20087;-35
2021/08/02 03:31:08;;;;;;;1.00;1.00;;;23.70;64.50;;;;;;5003509;28;20490;-36
2021/08/02 03:33:35;;;;;;;1.00;1.00;;;23.70;64.50;;;;;;4996680;28;20395;-36
2021/08/02 03:36:03;;;;;;;0.85;0.85;;;23.70;64.50;;;;;;5035443;28;20037;-37
2021/08/02 03:38:29;;;;;;;1.00;1.00;;;23.60;64.50;;;;;;5018381;28;20060;-36
2021/08/02 03:40:55;;;;;;;0.80;0.80;;;23.70;64.50;;;;;;5002235;28;20068;-36
2021/08/02 03:43:21;;;;;;;1.15;1.15;;;23.70;64.60;;;;;;5017752;28;20056;-36
2021/08/02 03:45:46;;;;;;;1.00;1.00;;;23.70;64.50;;;;;;5015627;28;20495;-36
2021/08/02 03:48:12;;;;;;;1.10;1.08;;;23.60;64.50;;;;;;5031958;28;20026;-36
2021/08/02 03:50:38;;;;;;;1.58;1.10;;;23.60;64.60;;;;;;5037875;28;20051;-36
2021/08/02 03:53:04;;;;;;;1.00;1.00;;;23.60;64.60;;;;;;5033618;28;20034;-35
2021/08/02 03:55:30;;;;;;;1.05;1.05;;;23.60;64.50;;;;;;5033657;28;20033;-36
2021/08/02 03:57:56;;;;;;;0.98;0.98;;;23.60;65.40;;;;;;5044006;28;20025;-36
2021/08/02 04:00:22;;;;;;;1.00;1.00;;;23.60;64.50;;;;;;5030611;28;20076;-36
2021/08/02 04:02:49;;;;;;;1.00;1.00;;;23.60;64.60;;;;;;5032675;28;20503;-37
2021/08/02 04:05:15;;;;;;;1.27;1.27;;;23.60;65.40;;;;;;5032466;28;20057;-36
2021/08/02 04:07:42;;;;;;;0.90;0.90;;;23.60;64.50;;;;;;5034215;28;20044;-35
2021/08/02 04:10:08;;;;;;;0.93;0.93;;;23.60;64.60;;;;;;5034406;28;20044;-36
2021/08/02 04:12:34;;;;;;;0.80;0.80;;;23.60;64.40;;;;;;5011513;28;20022;-36
2021/08/02 04:14:59;;;;;;;0.80;0.80;;;23.60;64.50;;;;;;5035472;28;20036;-36
2021/08/02 04:17:25;;;;;;;0.80;0.80;;;23.60;64.50;;;;;;5033682;28;20021;-36
2021/08/02 04:19:50;;;;;;;0.80;0.80;;;23.60;64.40;;;;;;5032865;28;20072;-36
2021/08/02 04:22:16;;;;;;;0.80;0.80;;;23.60;64.40;;;;;;5034294;28;20025;-36
2021/08/02 04:24:41;;;;;;;0.77;0.77;;;23.60;64.40;;;;;;5031547;28;20056;-36
2021/08/02 04:27:07;;;;;;;1.05;1.05;;;23.60;64.40;;;;;;5033117;28;20026;-36
2021/08/02 04:29:33;;;;;;;1.50;0.90;;;23.60;64.40;;;;;;5034075;28;20037;-36
2021/08/02 04:31:58;;;;;;;0.90;0.90;;;23.60;64.40;;;;;;5032592;28;20455;-36
2021/08/02 04:34:24;;;;;;;0.75;0.75;;;23.60;64.30;;;;;;5028009;28;20036;-36
2021/08/02 04:36:49;;;;;;;1.00;1.00;;;23.60;64.30;;;;;;5030993;28;20028;-36
2021/08/02 04:39:15;;;;;;;0.90;0.90;;;23.60;64.10;;;;;;5031261;28;20167;-36
2021/08/02 04:41:40;;;;;;;0.98;0.98;;;23.60;64.30;;;;;;5036739;28;20112;-35
2021/08/02 04:44:06;;;;;;;1.00;1.00;;;23.60;64.20;;;;;;5033696;28;20033;-35
2021/08/02 04:46:32;;;;;;;2.58;0.90;;;23.60;64.20;;;;;;5033684;28;20025;-35
2021/08/02 04:48:57;;;;;;;0.80;0.80;;;23.60;64.10;;;;;;5045155;28;20388;-35
2021/08/02 04:51:23;;;;;;;0.90;0.90;;;23.60;64.20;;;;;;5030147;28;20026;-35
2021/08/02 04:53:48;;;;;;;1.55;1.00;;;23.60;64.20;;;;;;5036167;28;20034;-35
2021/08/02 04:56:14;;;;;;;1.05;1.05;;;23.60;64.00;;;;;;5032866;28;20164;-36
2021/08/02 04:58:39;;;;;;;0.90;0.90;;;23.60;63.90;;;;;;5033097;28;20037;-35
2021/08/02 05:01:05;;;;;;;0.98;0.98;;;23.60;64.00;;;;;;5033974;28;20478;-35
2021/08/02 05:03:31;;;;;;;0.90;0.90;;;23.60;64.10;;;;;;5011764;28;20088;-36
2021/08/02 05:05:57;;;;;;;0.80;0.80;;;23.60;64.90;;;;;;5028228;28;20041;-36
2021/08/02 05:08:22;;;;;;;0.88;0.88;;;23.60;64.10;;;;;;5033730;28;20041;-36
2021/08/02 05:10:48;;;;;;;0.90;0.90;;;23.60;64.00;;;;;;5033899;28;20475;-36
2021/08/02 05:13:14;;;;;;;0.93;0.93;;;23.60;64.10;;;;;;5032060;28;20410;-36
2021/08/02 05:15:40;;;;;;;1.00;1.00;;;23.50;64.00;;;;;;5029818;28;20022;-36
2021/08/02 05:18:06;;;;;;;1.00;0.90;;;23.50;64.00;;;;;;5030282;28;20042;-36
2021/08/02 05:20:32;;;;;;;0.80;0.80;;;23.60;64.00;;;;;;5033633;28;20033;-36
2021/08/02 05:22:57;;;;;;;1.27;1.20;;;23.60;64.10;;;;;;5016971;28;20072;-36
2021/08/02 05:25:23;;;;;;;0.80;0.80;;;23.50;64.00;;;;;;5032927;28;20031;-35
2021/08/02 05:27:49;;;;;;;0.90;0.90;;;23.60;64.10;;;;;;5027049;28;20028;-35
2021/08/02 05:30:15;;;;;;;0.90;0.90;;;23.50;64.20;;;;;;5030351;28;20380;-36
2021/08/02 05:32:41;;;;;;;1.10;1.10;;;23.40;64.10;;;;;;5045093;28;20032;-36
2021/08/02 05:35:07;;;;;;;0.98;0.90;;;23.50;64.20;;;;;;5041030;28;20449;-36
2021/08/02 05:37:32;;;;;;;1.00;1.00;;;23.50;64.20;;;;;;5032734;28;20026;-36
2021/08/02 05:39:58;;;;;;;0.82;0.82;;;23.50;64.20;;;;;;5020174;28;20071;-36
2021/08/02 05:42:23;;;;;;;2.03;1.00;;;23.50;64.20;;;;;;5022920;28;20091;-35
2021/08/02 05:44:49;;;;;;;0.80;0.80;;;23.50;64.30;;;;;;5023349;28;20034;-38
2021/08/02 05:47:14;;;;;;;0.80;0.80;;;23.50;64.10;;;;;;5018469;28;20045;-37
2021/08/02 05:49:40;;;;;;;0.90;0.90;;;23.50;64.20;;;;;;5019044;28;20138;-37
2021/08/02 05:52:06;;;;;;;0.77;0.75;;;23.50;64.20;;;;;;5022058;28;20022;-36
2021/08/02 05:54:32;;;;;;;1.02;1.02;;;23.50;64.30;;;;;;5005970;28;20033;-36
2021/08/02 05:56:57;;;;;;;0.80;0.80;;;23.50;64.10;;;;;;5018193;28;20041;-38
2021/08/02 05:59:23;;;;;;;0.90;0.90;;;23.40;64.20;;;;;;5004195;28;20034;-37
2021/08/02 06:01:48;;;;;;;0.90;0.90;;;23.40;64.10;;;;;;5020673;28;20075;-37
2021/08/02 06:04:14;;;;;;;1.02;1.02;;;23.40;64.20;;;;;;5021004;28;20033;-36
2021/08/02 06:06:40;;;;;;;0.82;0.82;;;23.50;64.20;;;;;;4979154;28;20045;-37
2021/08/02 06:09:05;;;;;;;1.08;1.08;;;23.50;64.30;;;;;;5006479;28;20128;-36
2021/08/02 06:11:31;;;;;;;0.90;0.90;;;23.40;64.10;;;;;;5009937;28;20455;-37
2021/08/02 06:13:56;;;;;;;1.00;1.00;;;23.50;64.20;;;;;;5011853;28;21539;-37
2021/08/02 06:16:22;;;;;;;0.80;0.80;;;23.50;64.30;;;;;;4656062;28;10000317;-36
2021/08/02 06:18:48;;;;;;;1.10;1.10;;;23.40;64.40;;;;;;5004942;28;20042;-35
2021/08/02 06:21:14;;;;;;;0.90;0.90;;;23.40;64.30;;;;;;5000870;28;20022;-37
2021/08/02 06:23:39;;;;;;;0.88;0.88;;;23.40;64.30;;;;;;5006530;28;20028;-38
2021/08/02 06:26:05;;;;;;;1.08;1.00;;;23.40;64.40;;;;;;5009245;28;20041;-36
2021/08/02 06:28:30;;;;;;;1.13;1.13;;;23.30;64.50;;;;;;5005279;28;20061;-33
2021/08/02 06:31:00;;;;;;;1.33;1.23;;;23.40;64.60;;;;;;4997285;28;20030;-36
2021/08/02 06:33:26;;;;;;;1.35;1.25;;;23.30;64.70;;;;;;5001971;28;20185;-34
2021/08/02 06:35:51;;;;;;;1.50;1.40;;;23.40;64.50;;;;;;5001007;28;20506;-36
2021/08/02 06:38:17;;;;;;;1.50;1.40;;;23.40;64.40;;;;;;5006784;28;20079;-35
2021/08/02 06:40:44;;;;;;;1.55;1.45;;;23.50;64.40;;;;;;4998509;28;20030;-38
2021/08/02 06:43:09;;;;;;;1.65;1.55;;;23.50;64.40;;;;;;5014812;28;20056;-37
2021/08/02 06:45:35;;;;;;;1.35;1.35;;;23.60;64.10;;;;;;4996076;28;20488;-36
2021/08/02 06:48:00;;;;;;;1.40;1.30;;;23.60;64.10;;;;;;5001478;28;20609;-41
2021/08/02 06:50:26;;;;;;;1.70;1.30;;;23.60;64.30;;;;;;5008488;28;20420;-37
2021/08/02 06:52:52;;;;;;;1.52;1.42;;;23.60;64.40;;;;;;5010645;28;20034;-36
2021/08/02 06:55:18;;;;;;;1.45;1.38;;;23.60;64.30;;;;;;5011038;28;20048;-35
2021/08/02 06:57:44;;;;;;;1.60;1.50;;;23.60;64.00;;;;;;4997478;28;20404;-36
2021/08/02 07:00:10;;;;;;;2.33;1.60;;;23.60;64.20;;;;;;5010536;28;20022;-35
2021/08/02 07:02:35;;;;;;;1.95;1.73;;;23.50;64.30;;;;;;5005897;28;20057;-46
2021/08/02 07:05:01;;;;;;;2.35;2.15;;;23.60;65.10;;;;;;5009954;28;20400;-39
2021/08/02 07:07:26;;;;;;;2.17;2.08;;;23.50;64.30;;;;;;5009991;28;20046;-38
2021/08/02 07:09:52;;;;;;;2.80;1.90;;;23.50;64.20;;;;;;5020074;28;20034;-39
2021/08/02 07:12:18;;;;;;;2.28;2.05;;;23.40;64.30;;;;;;5033073;28;20123;-39
2021/08/02 07:14:43;;;;;;;2.60;2.40;;;23.40;64.60;;;;;;5028162;28;20026;-37
2021/08/02 07:17:09;;;;;;;2.15;1.95;;;23.30;64.40;;;;;;5026377;28;20075;-41
2021/08/02 07:19:35;;;;;;;2.13;2.03;;;23.30;64.30;;;;;;5023664;28;20021;-40
2021/08/02 07:22:00;;;;;;;2.17;2.08;;;23.30;64.30;;;;;;5026802;28;20514;-42
2021/08/02 07:24:26;;;;;;;2.30;2.10;;;23.30;65.30;;;;;;5022474;28;20036;-35
2021/08/02 07:26:51;;;;;;;2.15;2.05;;;23.40;64.60;;;;;;5033533;28;20855;-39
2021/08/02 07:29:17;;;;;;;2.55;2.35;;;23.40;64.30;;;;;;5036887;28;20495;-37
2021/08/02 07:31:42;;;;;;;2.50;2.30;;;23.40;64.40;;;;;;5028839;28;20037;-38
2021/08/02 07:34:08;;;;;;;2.33;2.13;;;23.40;64.50;;;;;;5029964;28;20033;-35
2021/08/02 07:36:34;;;;;;;2.60;2.38;;;23.30;64.40;;;;;;5024476;28;20129;-36
2021/08/02 07:38:59;;;;;;;3.30;2.70;;;23.40;64.60;;;;;;5025452;28;20026;-38
2021/08/02 07:41:26;;;;;;;2.90;2.70;;;23.30;64.30;;;;;;5039858;28;20149;-37
2021/08/02 07:43:51;;;;;;;2.65;2.55;;;23.30;64.20;;;;;;5037559;28;20044;-41
2021/08/02 07:46:17;;;;;;;2.47;2.28;;;23.40;64.00;;;;;;5028740;28;20025;-37
2021/08/02 07:48:43;;;;;;;2.55;2.38;;;23.40;64.00;;;;;;5021966;28;20038;-40
2021/08/02 07:51:08;;;;;;;2.60;2.50;;;23.40;64.60;;;;;;5044405;28;20057;-40
2021/08/02 07:53:34;;;;;;;2.70;2.50;;;23.40;63.90;;;;;;5041030;28;20069;-38
2021/08/02 07:55:59;;;;;;;2.90;2.30;;;23.40;64.10;;;;;;5028387;28;20041;-39
2021/08/02 07:58:25;;;;;;;2.88;2.63;;;23.40;64.10;;;;;;5024820;28;20040;-38
2021/08/02 08:00:50;;;;;;;2.60;2.50;;;23.40;64.10;;;;;;5038374;28;20032;-40
2021/08/02 08:03:17;;;;;;;3.13;2.83;;;23.30;64.10;;;;;;5020541;28;20061;-38
2021/08/02 08:05:43;;;;;;;2.85;2.65;;;23.40;64.00;;;;;;5015094;28;20050;-37
2021/08/02 08:08:09;;;;;;;2.63;2.42;;;23.50;63.60;;;;;;5015570;28;20041;-38
2021/08/02 08:10:34;;;;;;;2.75;2.55;;;23.50;64.10;;;;;;5011366;28;20022;-38
2021/08/02 08:13:00;;;;;;;3.00;2.53;;;23.50;64.30;;;;;;5014966;28;20026;-38
2021/08/02 08:15:25;;;;;;;2.97;2.75;;;23.60;64.30;;;;;;5023300;28;20033;-37
2021/08/02 08:17:51;;;;;;;3.47;3.00;;;23.50;64.20;;;;;;5010968;28;20112;-38
2021/08/02 08:20:19;;;;;;;2.60;2.40;;;23.60;64.10;;;;;;5011263;28;20688;-38
2021/08/02 08:22:45;;;;;;;3.40;2.60;;;23.60;64.10;;;;;;5011349;28;20029;-37
2021/08/02 08:25:11;;;;;;;2.42;2.33;;;23.60;64.00;;;;;;5010108;28;20045;-34
2021/08/02 08:27:37;;;;;;;2.95;2.75;;;23.70;63.80;;;;;;5009324;28;20169;-39
2021/08/02 08:30:04;;;;;;;2.60;2.50;;;23.70;63.80;;;;;;5016203;28;20041;-40
2021/08/02 08:32:30;;;;;;;3.10;2.63;;;23.70;63.90;;;;;;5009492;28;20034;-46
2021/08/02 08:34:55;;;;;;;3.13;2.78;;;23.70;63.80;;;;;;5012349;28;20087;-39
2021/08/02 08:37:21;;;;;;;2.90;2.70;;;23.70;63.70;;;;;;5010860;28;20521;-37
2021/08/02 08:39:47;;;;;;;2.67;2.47;;;23.70;63.50;;;;;;5018342;28;20523;-39
2021/08/02 08:42:15;;;;;;;2.78;2.58;;;23.70;63.70;;;;;;5027402;28;20030;-43
2021/08/02 08:44:41;;;;;;;4.63;2.78;;;23.60;64.50;;;;;;5006590;28;20044;-40
2021/08/02 08:47:06;;;;;;;2.63;2.53;;;23.70;63.60;;;;;;5031293;28;20033;-39
2021/08/02 08:49:32;;;;;;;2.70;2.50;;;23.70;63.80;;;;;;5024686;28;20041;-41
2021/08/02 08:51:57;;;;;;;2.38;2.28;;;23.70;63.50;;;;;;5017683;28;20025;-39
2021/08/02 08:54:23;;;;;;;2.88;2.67;;;23.70;63.50;;;;;;4988337;28;20554;-39
2021/08/02 08:56:49;;;;;;;2.83;2.63;;;23.60;63.50;;;;;;5030351;28;20029;-38
2021/08/02 08:59:16;;;;;;;2.50;2.40;;;23.60;63.50;;;;;;5026934;28;20061;-37
2021/08/02 09:01:41;;;;;;;2.70;2.60;;;23.70;63.50;;;;;;5008057;28;20083;-35
2021/08/02 09:04:07;;;;;;;2.85;2.60;;;23.70;63.60;;;;;;5032433;28;20441;-38
2021/08/02 09:06:48;;;;;;;2.92;2.72;;;23.70;63.40;;;;;;5016616;28;20042;-40
2021/08/02 09:09:28;;;;;;;3.80;2.80;;;23.70;63.00;;;;;;5041116;28;20040;-42
2021/08/02 09:12:16;;;;;;;3.17;2.65;;;23.70;62.70;;;;;;5006246;28;20080;-34
2021/08/02 09:14:58;;;;;;;2.60;2.40;;;23.80;63.00;;;;;;5028661;28;20041;-37
2021/08/02 09:17:34;;;;;;;2.30;2.10;;;23.70;62.70;;;;;;5015379;28;20032;-37
2021/08/02 09:20:01;;;;;;;2.63;2.42;;;23.80;63.00;;;;;;5034958;28;20120;-36
2021/08/02 09:22:27;;;;;;;2.60;2.35;;;23.70;62.70;;;;;;5036573;28;20037;-37
2021/08/02 09:25:32;;;;;;;2.60;2.38;;;23.70;62.90;;;;;;5020241;28;20034;-36
2021/08/02 09:27:57;;;;;;;2.47;2.38;;;23.80;62.80;;;;;;4988957;28;20442;-38
2021/08/02 09:30:24;;;;;;;2.50;2.40;;;23.80;62.50;;;;;;5005431;28;20038;-33
2021/08/02 09:32:55;;;;;;;2.05;1.95;;;23.80;62.70;;;;;;5028291;28;20036;-39
2021/08/02 09:35:30;;;;;;;2.30;2.20;;;23.80;62.60;;;;;;5025585;28;20026;-39
2021/08/02 09:37:57;;;;;;;4.25;2.35;;;23.80;62.40;;;;;;5031243;28;20060;-33
2021/08/02 09:40:23;;;;;;;2.63;2.53;;;23.80;62.70;;;;;;5033185;28;20079;-36
2021/08/02 09:42:55;;;;;;;4.75;2.50;;;23.80;62.40;;;;;;5031898;28;20025;-37
2021/08/02 09:45:21;;;;;;;3.65;2.22;;;23.80;62.40;;;;;;5029617;28;20415;-38
2021/08/02 09:47:50;;;;;;;4.63;2.20;;;23.80;62.30;;;;;;5030167;28;20033;-37
2021/08/02 09:50:29;;;;;;;2.38;2.25;;;23.80;62.10;;;;;;5032853;28;20044;-37
2021/08/02 09:52:55;;;;;;;2.35;2.15;;;23.80;62.00;;;;;;5030737;28;20026;-38
2021/08/02 09:55:22;;;;;;;2.40;2.20;;;23.90;61.90;;;;;;5031919;28;20037;-38
2021/08/02 09:57:50;;;;;;;2.08;1.98;;;23.90;61.90;;;;;;5031300;28;20033;-36
2021/08/02 10:00:17;;;;;;;2.17;2.05;;;23.90;62.00;;;;;;5031141;28;20025;-37
2021/08/02 10:02:43;;;;;;;4.65;2.30;;;23.90;61.90;;;;;;5008060;28;20463;-37
2021/08/02 10:05:09;;;;;;;2.95;2.30;;;23.90;61.70;;;;;;5029183;28;20045;-34
2021/08/02 10:07:36;;;;;;;2.10;2.00;;;23.90;61.90;;;;;;5031988;28;20044;-36
2021/08/02 10:10:01;;;;;;;2.08;1.95;;;24.00;61.70;;;;;;5032407;28;20067;-37
2021/08/02 10:12:28;;;;;;;2.30;2.20;;;24.00;62.40;;;;;;5011801;28;20847;-38
2021/08/02 10:14:56;;;;;;;2.65;2.53;;;24.00;61.40;;;;;;4997169;28;20029;-38
2021/08/02 10:17:22;;;;;;;2.17;1.92;;;23.90;61.50;;;;;;4999192;28;20033;-36
2021/08/02 10:19:54;;;;;;;2.30;2.20;;;23.90;61.60;;;;;;5018093;28;20037;-38
2021/08/02 10:22:19;;;;;;;2.42;2.33;;;23.90;61.50;;;;;;5025274;28;20032;-37
2021/08/02 10:24:49;;;;;;;2.38;2.15;;;23.90;61.10;;;;;;5017307;28;20403;-37
2021/08/02 10:27:27;;;;;;;2.30;2.20;;;23.90;61.10;;;;;;5014209;28;20037;-35
2021/08/02 10:29:52;;;;;;;2.30;2.20;;;23.90;61.00;;;;;;5035115;28;20117;-37
2021/08/02 10:32:22;;;;;;;2.33;2.13;;;23.90;61.00;;;;;;5014866;28;20535;-38
2021/08/02 10:34:52;;;;;;;3.50;2.42;;;23.90;60.70;;;;;;5030472;28;20590;-38
2021/08/02 10:37:36;;;;;;;2.20;2.10;;;23.90;60.80;;;;;;5029690;28;20154;-38
2021/08/02 10:40:09;;;;;;;3.83;2.40;;;23.90;60.70;;;;;;5032534;28;20426;-39
2021/08/02 10:42:47;;;;;;;2.08;1.98;;;23.90;60.30;;;;;;5026365;28;20033;-39
2021/08/02 10:45:13;;;;;;;2.25;2.13;;;23.90;60.30;;;;;;5034109;28;20038;-36
2021/08/02 10:47:39;;;;;;;2.05;1.90;;;23.80;60.10;;;;;;5020278;28;20030;-35
2021/08/02 10:50:06;;;;;;;2.20;2.10;;;23.90;60.60;;;;;;5035805;28;20033;-39
2021/08/02 10:52:31;;;;;;;3.10;2.15;;;23.90;60.30;;;;;;5010003;28;20499;-38
2021/08/02 10:54:57;;;;;;;2.40;2.30;;;23.90;60.60;;;;;;5021443;28;20020;-38
2021/08/02 10:57:23;;;;;;;2.38;2.20;;;23.80;61.10;;;;;;5013644;28;20497;-37
2021/08/02 10:59:48;;;;;;;2.30;2.13;;;23.80;60.80;;;;;;5016849;28;20771;-40
2021/08/02 11:02:14;;;;;;;1.98;1.85;;;23.80;61.30;;;;;;5015859;28;20033;-38
2021/08/02 11:04:40;;;;;;;1.95;1.85;;;23.80;60.50;;;;;;5030426;28;20510;-38
2021/08/02 11:07:06;;;;;;;2.20;2.10;;;23.80;60.10;;;;;;5032090;28;20029;-38
2021/08/02 11:09:33;;;;;;;2.03;1.92;;;23.80;60.30;;;;;;5026541;28;20037;-38
2021/08/02 11:12:13;;;;;;;1.83;1.73;;;23.80;60.30;;;;;;5022113;28;20361;-38
2021/08/02 11:15:05;;;;;;;2.40;2.22;;;23.80;60.50;;;;;;5015531;28;20030;-36
2021/08/02 11:17:30;;;;;;;1.98;1.88;;;23.80;60.90;;;;;;5030979;28;20746;-36
2021/08/02 11:20:08;;;;;;;2.20;2.00;;;23.80;60.80;;;;;;5021975;28;20041;-37
2021/08/02 11:22:37;;;;;;;2.20;2.10;;;23.80;60.50;;;;;;5032388;28;20041;-39
2021/08/02 11:25:03;;;;;;;2.03;1.85;;;23.80;60.80;;;;;;5031738;28;20095;-39
2021/08/02 11:27:29;;;;;;;2.25;2.15;;;23.80;60.90;;;;;;5042767;28;20507;-37
2021/08/02 11:29:55;;;;;;;2.05;1.95;;;23.80;61.70;;;;;;5006790;28;20043;-37
2021/08/02 11:32:21;;;;;;;2.90;2.70;;;23.80;60.90;;;;;;5040293;28;20116;-37
2021/08/02 11:34:57;;;;;;;2.50;2.40;;;23.70;61.80;;;;;;5034384;28;20090;-39
2021/08/02 11:37:24;;;;;;;2.20;2.10;;;23.80;60.80;;;;;;5015054;28;20610;-36
2021/08/02 11:40:00;;;;;;;2.58;2.28;;;23.80;60.70;;;;;;5012898;28;20418;-38
2021/08/02 11:42:28;;;;;;;1.88;1.77;;;23.70;60.70;;;;;;5026768;28;20029;-38
2021/08/02 11:44:54;;;;;;;2.13;2.03;;;23.80;60.60;;;;;;5042000;28;20124;-40
2021/08/02 11:47:27;;;;;;;1.90;1.80;;;23.70;60.20;;;;;;5031281;28;20021;-38
2021/08/02 11:49:56;;;;;;;2.00;1.90;;;23.70;60.10;;;;;;5017047;28;20041;-39
2021/08/02 11:52:23;;;;;;;2.00;1.90;;;23.70;60.10;;;;;;5006593;28;20419;-39
2021/08/02 11:54:59;;;;;;;1.90;1.80;;;23.70;59.80;;;;;;5028122;28;20041;-38
2021/08/02 11:57:25;;;;;;;1.58;1.48;;;23.70;60.30;;;;;;5025725;28;20075;-39
2021/08/02 11:59:55;;;;;;;2.20;1.80;;;23.70;59.70;;;;;;5030608;28;20447;-37
2021/08/02 12:02:50;;;;;;;1.42;1.38;;;23.70;60.00;;;;;;5020990;28;20507;-38
2021/08/02 12:05:23;;;;;;;1.70;1.42;;;23.70;59.80;;;;;;5008985;28;20095;-40
2021/08/02 12:07:49;;;;;;;1.77;1.67;;;23.60;59.70;;;;;;5024934;28;20087;-37
2021/08/02 12:10:16;;;;;;;1.60;1.50;;;23.60;59.80;;;;;;5038048;28;20059;-40
2021/08/02 12:12:42;;;;;;;2.00;1.90;;;23.60;59.70;;;;;;5026722;28;20108;-41
2021/08/02 12:15:09;;;;;;;2.30;2.13;;;23.60;59.70;;;;;;5029731;28;20521;-39
2021/08/02 12:17:46;;;;;;;2.88;2.15;;;23.70;59.90;;;;;;5030508;28;20403;-42
2021/08/02 12:20:12;;;;;;;1.92;1.83;;;23.70;59.80;;;;;;5005282;28;20025;-37
2021/08/02 12:22:38;;;;;;;2.08;1.92;;;23.80;60.00;;;;;;5028867;28;20048;-40
2021/08/02 12:25:04;;;;;;;1.90;1.80;;;23.80;59.90;;;;;;5028794;28;20096;-38
2021/08/02 12:27:30;;;;;;;2.17;1.98;;;23.80;60.90;;;;;;5021129;28;20033;-39
2021/08/02 12:30:00;;;;;;;4.95;2.00;;;23.90;60.80;;;;;;5028808;28;20048;-38
2021/08/02 12:32:41;;;;;;;2.35;1.70;;;23.90;60.60;;;;;;5019602;28;20107;-37
2021/08/02 12:35:09;;;;;;;1.83;1.70;;;23.90;60.10;;;;;;5020476;28;20411;-37
2021/08/02 12:37:35;;;;;;;2.38;2.05;;;23.90;61.00;;;;;;5024523;28;20037;-41
2021/08/02 12:40:02;;;;;;;2.50;1.88;;;23.90;60.10;;;;;;5020919;28;20547;-40
2021/08/02 12:42:27;;;;;;;1.48;1.40;;;23.90;60.40;;;;;;5009283;28;20111;-36
2021/08/02 12:44:53;;;;;;;2.78;1.65;;;23.90;59.80;;;;;;5001259;28;20487;-39
2021/08/02 12:47:20;;;;;;;1.88;1.67;;;23.90;59.90;;;;;;5017453;28;20033;-38
2021/08/02 12:49:46;;;;;;;1.90;1.70;;;23.90;59.90;;;;;;5012403;28;20042;-40